createdAt,value
2019-02-10T00:01:51.328Z,76.39
2019-02-10T00:04:32.932Z,78.03
2019-02-10T00:07:07.380Z,78.04
2019-02-10T00:09:47.399Z,78.03
2019-02-10T00:12:20.547Z,77.07
2019-02-10T00:15:01.157Z,77.75
2019-02-10T00:17:36.471Z,77.58
2019-02-10T00:20:14.813Z,77.10
2019-02-10T00:22:52.009Z,77.25
2019-02-10T00:25:35.692Z,77.10
2019-02-10T00:28:11.312Z,77.12
2019-02-10T00:30:50.697Z,77.29
2019-02-10T00:33:24.097Z,77.37
2019-02-10T00:36:01.360Z,77.15
2019-02-10T00:38:38.523Z,77.63
2019-02-10T00:41:15.404Z,77.96
2019-02-10T00:43:47.795Z,78.53
2019-02-10T00:46:26.254Z,78.67
2019-02-10T00:49:01.496Z,78.28
2019-02-10T00:51:38.144Z,78.04
2019-02-10T00:54:10.626Z,77.33
2019-02-10T00:56:51.619Z,78.09
2019-02-10T00:59:26.295Z,77.96
2019-02-10T01:02:05.246Z,78.32
2019-02-10T01:04:38.366Z,77.92
2019-02-10T01:07:15.467Z,77.96
2019-02-10T01:09:49.106Z,78.70
2019-02-10T01:12:24.238Z,79.27
2019-02-10T01:14:55.331Z,78.32
2019-02-10T01:17:29.297Z,78.33
2019-02-10T01:20:01.951Z,78.98
2019-02-10T01:22:40.234Z,78.60
2019-02-10T01:25:12.396Z,78.86
2019-02-10T01:27:47.900Z,79.25
2019-02-10T01:30:19.938Z,79.15
2019-02-10T01:32:55.000Z,79.45
2019-02-10T01:35:28.126Z,79.46
2019-02-10T01:38:03.724Z,79.22
2019-02-10T01:40:38.184Z,77.98
2019-02-10T01:43:16.162Z,77.25
2019-02-10T01:45:50.032Z,76.88
2019-02-10T01:48:24.453Z,77.11
2019-02-10T01:50:57.093Z,77.35
2019-02-10T01:53:34.190Z,77.48
2019-02-10T01:56:06.019Z,77.08
2019-02-10T01:58:41.283Z,77.90
2019-02-10T02:01:14.072Z,78.18
2019-02-10T02:03:49.493Z,78.41
2019-02-10T02:06:22.453Z,77.75
2019-02-10T02:08:55.888Z,77.98
2019-02-10T02:11:30.534Z,78.60
2019-02-10T02:14:05.563Z,78.38
2019-02-10T02:16:39.063Z,78.62
2019-02-10T02:19:15.320Z,79.39
2019-02-10T02:21:48.747Z,79.47
2019-02-10T02:24:21.239Z,80.10
2019-02-10T02:27:01.892Z,80.06
2019-02-10T02:29:33.750Z,80.32
2019-02-10T02:32:06.944Z,79.01
2019-02-10T02:34:39.186Z,78.92
2019-02-10T02:37:12.180Z,78.73
2019-02-10T02:39:46.475Z,79.78
2019-02-10T02:42:18.775Z,80.07
2019-02-10T02:44:51.439Z,80.33
2019-02-10T02:47:24.692Z,80.38
2019-02-10T02:49:58.466Z,81.32
2019-02-10T02:52:32.645Z,81.69
2019-02-10T02:55:06.432Z,80.89
2019-02-10T02:57:39.562Z,81.63
2019-02-10T03:00:13.514Z,81.07
2019-02-10T03:02:43.843Z,80.42
2019-02-10T03:05:13.592Z,80.26
2019-02-10T03:07:44.331Z,79.58
2019-02-10T03:10:15.025Z,79.97
2019-02-10T03:12:46.914Z,79.86
2019-02-10T03:15:20.720Z,80.06
2019-02-10T03:17:53.285Z,79.94
2019-02-10T03:20:27.040Z,80.32
2019-02-10T03:22:59.553Z,80.83
2019-02-10T03:25:33.028Z,80.43
2019-02-10T03:28:08.029Z,80.42
2019-02-10T03:30:41.476Z,80.52
2019-02-10T03:33:13.238Z,80.12
2019-02-10T03:35:47.710Z,81.26
2019-02-10T03:38:23.017Z,81.52
2019-02-10T03:40:57.917Z,81.62
2019-02-10T03:43:31.176Z,82.08
2019-02-10T03:46:03.930Z,81.72
2019-02-10T03:48:37.140Z,81.94
2019-02-10T03:51:10.925Z,82.04
2019-02-10T03:53:46.136Z,82.28
2019-02-10T03:56:19.251Z,82.23
2019-02-10T03:58:51.849Z,81.70
2019-02-10T04:01:25.503Z,82.13
2019-02-10T04:03:56.672Z,81.85
2019-02-10T04:06:28.976Z,81.77
2019-02-10T04:09:03.112Z,80.70
2019-02-10T04:11:41.745Z,81.19
2019-02-10T04:14:15.441Z,81.78
2019-02-10T04:16:47.197Z,81.40
2019-02-10T04:19:19.122Z,80.72
2019-02-10T04:21:55.062Z,80.85
2019-02-10T04:24:27.276Z,80.94
2019-02-10T04:27:00.755Z,81.80
2019-02-10T04:29:33.803Z,81.63
2019-02-10T04:32:06.407Z,81.62
2019-02-10T04:34:39.724Z,81.69
2019-02-10T04:37:11.575Z,81.68
2019-02-10T04:39:49.004Z,80.63
2019-02-10T04:42:22.947Z,80.95
2019-02-10T04:44:54.117Z,81.01
2019-02-10T04:47:26.728Z,81.37
2019-02-10T04:50:00.383Z,80.80
2019-02-10T04:52:32.570Z,80.61
2019-02-10T04:55:06.016Z,81.13
2019-02-10T04:57:39.652Z,80.69
2019-02-10T05:00:13.934Z,81.48
2019-02-10T05:02:46.565Z,81.27
2019-02-10T05:05:20.375Z,81.82
2019-02-10T05:07:54.746Z,81.72
2019-02-10T05:10:27.536Z,82.04
2019-02-10T05:13:02.211Z,82.49
2019-02-10T05:15:34.476Z,81.93
2019-02-10T05:18:06.940Z,81.97
2019-02-10T05:20:39.112Z,82.34
2019-02-10T05:23:11.433Z,81.99
2019-02-10T05:25:43.044Z,82.13
2019-02-10T05:28:14.324Z,82.16
2019-02-10T05:30:47.399Z,81.60
2019-02-10T05:33:21.346Z,82.02
2019-02-10T05:35:52.623Z,81.93
2019-02-10T05:38:28.492Z,81.85
2019-02-10T05:41:04.853Z,81.50
2019-02-10T05:43:40.452Z,81.05
2019-02-10T05:46:11.835Z,80.86
2019-02-10T05:48:46.944Z,80.18
2019-02-10T05:51:18.412Z,80.31
2019-02-10T05:53:53.220Z,80.35
2019-02-10T05:56:24.681Z,81.05
2019-02-10T05:58:58.819Z,81.30
2019-02-10T06:02:03.282Z,81.76
2019-02-10T06:04:44.197Z,81.84
2019-02-10T06:07:19.106Z,81.82
2019-02-10T06:09:54.426Z,81.56
2019-02-10T06:12:29.138Z,81.30
2019-02-10T06:15:08.902Z,81.47
2019-02-10T06:17:41.615Z,81.24
2019-02-10T06:20:17.262Z,81.11
2019-02-10T06:22:50.946Z,80.90
2019-02-10T06:25:24.829Z,81.06
2019-02-10T06:28:02.868Z,80.03
2019-02-10T06:30:40.209Z,79.70
2019-02-10T06:33:14.658Z,80.33
2019-02-10T06:35:49.961Z,80.14
2019-02-10T06:38:23.957Z,80.41
2019-02-10T06:40:57.401Z,80.15
2019-02-10T06:43:31.587Z,79.71
2019-02-10T06:46:05.120Z,78.66
2019-02-10T06:48:37.729Z,79.32
2019-02-10T06:51:12.026Z,79.13
2019-02-10T06:53:45.596Z,79.56
2019-02-10T06:56:21.350Z,79.48
2019-02-10T06:58:53.416Z,78.98
2019-02-10T07:01:27.020Z,79.90
2019-02-10T07:04:04.670Z,79.70
2019-02-10T07:06:45.060Z,79.53
2019-02-10T07:09:18.163Z,79.65
2019-02-10T07:11:51.109Z,80.25
2019-02-10T07:14:25.709Z,80.48
2019-02-10T07:20:14.432Z,80.51
2019-02-10T07:22:53.296Z,80.06
2019-02-10T07:25:49.861Z,80.25
2019-02-10T07:28:31.003Z,79.88
2019-02-10T07:31:11.046Z,79.39
2019-02-10T07:34:11.376Z,79.12
2019-02-10T07:36:59.849Z,79.30
2019-02-10T07:40:03.575Z,78.76
2019-02-10T07:43:01.383Z,78.54
2019-02-10T07:45:52.267Z,78.45
2019-02-10T07:48:42.160Z,78.09
2019-02-10T07:51:37.849Z,78.08
2019-02-10T07:54:12.308Z,77.04
2019-02-10T07:59:55.247Z,76.96
2019-02-10T08:05:31.029Z,76.24
2019-02-10T08:08:18.249Z,76.31
2019-02-10T08:11:31.061Z,75.57
2019-02-10T08:17:35.384Z,75.18
2019-02-10T08:20:23.336Z,73.47
2019-02-10T08:26:16.800Z,72.95
2019-02-10T08:29:08.204Z,74.03
2019-02-10T08:32:02.824Z,72.79
2019-02-10T08:37:25.993Z,72.01
2019-02-10T08:40:39.111Z,71.38
2019-02-10T08:46:39.352Z,70.80
2019-02-10T08:52:28.515Z,70.92
2019-02-10T08:57:40.202Z,73.41
2019-02-10T09:02:52.331Z,73.65
2019-02-10T09:08:01.574Z,73.63
2019-02-10T09:13:14.346Z,73.72
2019-02-10T09:18:23.723Z,72.30
2019-02-10T09:23:31.019Z,70.51
2019-02-10T09:32:54.817Z,62.85
2019-02-10T09:38:00.489Z,67.37
2019-02-10T09:53:23.597Z,61.16
2019-02-10T09:56:04.038Z,60.53
2019-02-10T09:58:40.591Z,58.27
2019-02-10T10:01:14.879Z,59.37
2019-02-10T10:03:48.265Z,61.66
2019-02-10T10:06:28.014Z,57.83
2019-02-10T10:09:05.173Z,53.28
2019-02-10T10:11:43.244Z,54.89
2019-02-10T10:14:14.447Z,48.96
2019-02-10T10:16:50.514Z,50.39
2019-02-10T10:19:23.612Z,52.73
2019-02-10T10:22:05.719Z,49.29
2019-02-10T10:24:50.166Z,46.75
2019-02-10T10:29:59.702Z,49.19
2019-02-10T10:32:35.017Z,48.96
2019-02-10T10:35:09.651Z,49.69
2019-02-10T10:37:41.638Z,57.73
2019-02-10T10:40:19.232Z,53.92
2019-02-10T10:44:53.362Z,45.79
2019-02-10T10:47:27.084Z,58.43
2019-02-10T10:49:59.394Z,62.93
2019-02-10T10:52:34.666Z,64.09
2019-02-10T10:55:04.748Z,63.67
2019-02-10T10:57:37.088Z,62.26
2019-02-10T11:00:11.929Z,62.40
2019-02-10T11:02:50.576Z,62.61
2019-02-10T11:05:23.343Z,62.74
2019-02-10T11:07:59.917Z,61.94
2019-02-10T11:10:31.357Z,61.39
2019-02-10T11:13:05.771Z,61.16
2019-02-10T11:15:39.274Z,61.42
2019-02-10T11:18:15.274Z,61.97
2019-02-10T11:20:46.696Z,61.99
2019-02-10T11:23:22.192Z,61.30
2019-02-10T11:25:57.668Z,60.81
2019-02-10T11:28:34.391Z,61.93
2019-02-10T11:31:05.778Z,61.52
2019-02-10T11:36:09.992Z,61.24
2019-02-10T11:38:48.766Z,60.14
2019-02-10T11:41:20.533Z,60.92
2019-02-10T11:43:54.965Z,59.87
2019-02-10T11:46:30.098Z,59.37
2019-02-10T11:51:34.569Z,60.15
2019-02-10T11:54:11.865Z,59.10
2019-02-10T11:56:43.273Z,57.57
2019-02-10T12:01:49.257Z,58.28
2019-02-10T12:06:56.326Z,57.99
2019-02-10T12:09:33.807Z,59.06
2019-02-10T12:12:03.816Z,59.22
2019-02-10T12:17:08.206Z,58.62
2019-02-10T12:22:14.944Z,58.69
2019-02-10T12:24:52.364Z,59.52
2019-02-10T12:27:28.516Z,58.98
2019-02-10T12:30:06.845Z,58.79
2019-02-10T12:32:40.296Z,57.52
2019-02-10T12:35:21.688Z,56.82
2019-02-10T12:37:58.291Z,56.77
2019-02-10T12:40:29.426Z,56.61
2019-02-10T12:45:36.858Z,53.86
2019-02-10T12:48:14.264Z,54.68
2019-02-10T12:50:45.998Z,54.83
2019-02-10T12:53:21.646Z,54.46
2019-02-10T12:55:53.616Z,55.92
2019-02-10T13:01:50.746Z,56.58
2019-02-10T13:06:56.613Z,56.95
2019-02-10T13:09:33.862Z,57.15
2019-02-10T13:12:04.640Z,57.03
2019-02-10T13:14:39.924Z,57.08
2019-02-10T13:17:10.226Z,57.35
2019-02-10T13:20:04.882Z,57.74
2019-02-10T13:22:36.659Z,57.29
2019-02-10T13:27:50.512Z,55.89
2019-02-10T13:30:23.925Z,56.54
2019-02-10T13:32:55.645Z,57.49
2019-02-10T13:35:30.152Z,56.71
2019-02-10T13:38:01.617Z,57.14
2019-02-10T13:40:37.813Z,58.89
2019-02-10T13:43:09.983Z,58.84
2019-02-10T13:45:45.058Z,58.62
2019-02-10T13:51:18.174Z,58.67
2019-02-10T13:56:48.499Z,59.79
2019-02-10T14:02:17.964Z,60.18
2019-02-10T14:04:52.256Z,59.47
2019-02-10T14:07:26.670Z,59.96
2019-02-10T14:09:57.258Z,58.97
2019-02-10T14:12:32.520Z,59.32
2019-02-10T14:18:03.491Z,58.77
2019-02-10T14:20:35.115Z,58.98
2019-02-10T14:23:11.925Z,58.15
2019-02-10T14:25:42.827Z,59.53
2019-02-10T14:28:21.872Z,60.75
2019-02-10T14:30:51.908Z,61.22
2019-02-10T14:33:25.047Z,60.37
2019-02-10T14:35:54.896Z,60.32
2019-02-10T14:38:36.281Z,60.24
2019-02-10T14:41:01.554Z,59.89
2019-02-10T14:43:35.611Z,59.77
2019-02-10T14:46:07.020Z,60.39
2019-02-10T14:48:40.643Z,60.09
2019-02-10T14:51:13.348Z,60.40
2019-02-10T14:53:48.065Z,60.38
2019-02-10T14:56:17.724Z,60.91
2019-02-10T14:58:50.470Z,60.52
2019-02-10T15:01:20.992Z,61.29
2019-02-10T15:03:57.170Z,60.85
2019-02-10T15:06:30.293Z,61.32
2019-02-10T15:09:19.438Z,60.65
2019-02-10T15:11:49.889Z,61.87
2019-02-10T15:14:23.645Z,61.22
2019-02-10T15:17:00.783Z,61.78
2019-02-10T15:19:35.187Z,61.62
2019-02-10T15:22:07.819Z,62.23
2019-02-10T15:24:43.200Z,62.01
2019-02-10T15:27:19.002Z,62.37
2019-02-10T15:29:54.556Z,62.00
2019-02-10T15:32:25.925Z,62.71
2019-02-10T15:35:03.421Z,62.23
2019-02-10T15:37:33.616Z,62.89
2019-02-10T15:40:30.591Z,62.68
2019-02-10T15:43:06.302Z,63.28
2019-02-10T15:45:36.890Z,63.12
2019-02-10T15:48:11.459Z,62.22
2019-02-10T15:50:42.276Z,63.13
2019-02-10T15:53:16.789Z,63.03
2019-02-10T15:55:49.105Z,63.60
2019-02-10T15:58:27.848Z,62.99
2019-02-10T16:00:57.491Z,62.50
2019-02-10T16:03:31.724Z,62.83
2019-02-10T16:06:02.673Z,62.28
2019-02-10T16:08:36.877Z,62.22
2019-02-10T16:11:08.971Z,63.74
2019-02-10T16:13:43.838Z,62.86
2019-02-10T16:16:16.971Z,64.17
2019-02-10T16:18:50.801Z,65.81
2019-02-10T16:21:24.717Z,65.77
2019-02-10T16:23:59.212Z,66.46
2019-02-10T16:26:29.845Z,66.30
2019-02-10T16:29:07.870Z,67.80
2019-02-10T16:31:38.444Z,67.44
2019-02-10T16:34:14.695Z,68.91
2019-02-10T16:36:45.971Z,69.97
2019-02-10T16:39:21.154Z,70.44
2019-02-10T16:41:55.923Z,70.53
2019-02-10T16:44:31.247Z,71.10
2019-02-10T16:47:02.864Z,72.54
2019-02-10T16:49:37.739Z,72.38
2019-02-10T16:52:10.640Z,73.00
2019-02-10T16:54:46.859Z,74.31
2019-02-10T16:57:17.425Z,75.03
2019-02-10T17:02:28.885Z,76.06
2019-02-10T17:05:06.449Z,75.91
2019-02-10T17:07:37.803Z,75.24
2019-02-10T17:10:17.149Z,74.53
2019-02-10T17:15:45.259Z,75.01
2019-02-10T17:18:19.247Z,74.84
2019-02-10T17:20:57.363Z,72.58
2019-02-10T17:23:28.749Z,72.28
2019-02-10T17:28:38.404Z,73.16
2019-02-10T17:31:14.432Z,74.44
2019-02-10T17:33:44.430Z,73.99
2019-02-10T17:36:19.856Z,74.45
2019-02-10T17:38:48.417Z,75.76
2019-02-10T17:43:59.860Z,77.46
2019-02-10T17:46:34.214Z,77.89
2019-02-10T17:49:14.356Z,77.61
2019-02-10T17:51:47.443Z,77.75
2019-02-10T17:54:21.905Z,78.17
2019-02-10T17:56:56.735Z,78.25
2019-02-10T17:59:25.002Z,78.98
2019-02-10T18:02:00.458Z,79.88
2019-02-10T18:04:37.387Z,80.07
2019-02-10T18:07:08.116Z,80.57
2019-02-10T18:09:37.922Z,82.11
2019-02-10T18:12:09.580Z,82.23
2019-02-10T18:14:55.719Z,82.09
2019-02-10T18:20:17.760Z,81.41
2019-02-10T18:25:29.062Z,81.53
2019-02-10T18:30:45.171Z,82.16
2019-02-10T18:36:13.167Z,80.07
2019-02-10T18:41:39.326Z,78.65
2019-02-10T18:50:01.464Z,78.48
2019-02-10T18:55:12.144Z,78.46
2019-02-10T19:00:26.326Z,77.74
2019-02-10T19:05:36.203Z,79.47
2019-02-10T19:08:16.307Z,78.99
2019-02-10T19:10:50.071Z,78.55
2019-02-10T19:16:25.327Z,78.92
2019-02-10T19:21:44.877Z,81.12
2019-02-10T19:32:42.320Z,79.71
2019-02-10T19:35:21.834Z,80.08
2019-02-10T19:37:53.921Z,78.98
2019-02-10T19:40:28.194Z,78.21
2019-02-10T19:43:01.618Z,77.46
2019-02-10T19:45:49.758Z,77.27
2019-02-10T19:48:32.610Z,77.46
2019-02-10T19:51:16.480Z,77.80
2019-02-10T19:53:56.572Z,78.17
2019-02-10T19:56:29.546Z,78.92
2019-02-10T19:59:01.251Z,77.85
2019-02-10T20:01:38.053Z,77.51
2019-02-10T20:04:10.336Z,77.54
2019-02-10T20:06:41.602Z,76.45
2019-02-10T20:09:24.645Z,76.74
2019-02-10T20:12:03.886Z,76.85
2019-02-10T20:14:30.501Z,75.79
2019-02-10T20:17:11.086Z,75.43
2019-02-10T20:19:48.425Z,74.75
2019-02-10T20:22:30.416Z,74.22
2019-02-10T20:25:09.290Z,74.75
2019-02-10T20:27:53.358Z,73.54
2019-02-10T20:30:26.267Z,73.70
2019-02-10T20:33:04.193Z,74.15
2019-02-10T20:35:43.082Z,74.20
2019-02-10T20:38:15.466Z,74.43
2019-02-10T20:40:53.802Z,74.02
2019-02-10T20:43:27.071Z,72.83
2019-02-10T20:46:14.827Z,73.06
2019-02-10T20:48:50.715Z,73.75
2019-02-10T20:51:24.245Z,73.10
2019-02-10T20:54:06.082Z,72.75
2019-02-10T20:56:42.129Z,72.29
2019-02-10T20:59:16.810Z,72.65
2019-02-10T21:02:04.908Z,72.70
2019-02-10T21:04:49.099Z,72.82
2019-02-10T21:07:20.580Z,72.58
2019-02-10T21:09:53.517Z,72.38
2019-02-10T21:12:41.680Z,71.47
2019-02-10T21:15:20.225Z,70.50
2019-02-10T21:17:53.743Z,70.98
2019-02-10T21:20:38.109Z,71.92
2019-02-10T21:23:12.352Z,71.79
2019-02-10T21:25:52.561Z,71.88
2019-02-10T21:28:19.155Z,71.56
2019-02-10T21:30:59.149Z,72.45
2019-02-10T21:33:46.411Z,71.56
2019-02-10T21:36:21.996Z,71.96
2019-02-10T21:39:09.840Z,71.65
2019-02-10T21:41:44.562Z,72.03
2019-02-10T21:44:22.651Z,71.03
2019-02-10T21:47:04.368Z,70.93
2019-02-10T21:49:35.915Z,70.29
2019-02-10T21:52:05.762Z,70.28
2019-02-10T21:54:39.382Z,70.10
2019-02-10T21:57:12.714Z,70.49
2019-02-10T21:59:43.577Z,71.03
2019-02-10T22:02:17.359Z,70.50
2019-02-10T22:04:46.399Z,70.43
2019-02-10T22:07:17.804Z,70.28
2019-02-10T22:09:47.409Z,70.98
2019-02-10T22:12:19.248Z,70.55
2019-02-10T22:14:49.705Z,71.29
2019-02-10T22:17:22.545Z,71.27
2019-02-10T22:19:53.771Z,70.50
2019-02-10T22:22:24.363Z,70.12
2019-02-10T22:24:57.141Z,70.12
2019-02-10T22:27:28.742Z,69.63
2019-02-10T22:29:58.528Z,69.12
2019-02-10T22:32:29.375Z,69.73
2019-02-10T22:35:00.755Z,69.95
2019-02-10T22:37:30.587Z,69.45
2019-02-10T22:40:02.304Z,69.22
2019-02-10T22:42:32.100Z,69.31
2019-02-10T22:45:03.995Z,68.67
2019-02-10T22:47:39.179Z,68.78
2019-02-10T22:50:18.821Z,69.00
2019-02-10T22:52:49.523Z,69.07
2019-02-10T22:55:22.209Z,67.43
2019-02-10T22:57:56.669Z,67.70
2019-02-10T23:00:53.432Z,68.24
2019-02-10T23:03:23.975Z,68.66
2019-02-10T23:05:58.349Z,68.48
2019-02-10T23:08:30.175Z,67.75
2019-02-10T23:11:03.020Z,67.57
2019-02-10T23:13:32.900Z,68.09
2019-02-10T23:16:05.051Z,68.19
2019-02-10T23:18:52.624Z,68.42
2019-02-10T23:21:25.331Z,68.36
2019-02-10T23:23:55.646Z,68.34
2019-02-10T23:26:31.822Z,68.87
2019-02-10T23:29:05.569Z,68.94
2019-02-10T23:31:40.075Z,69.70
2019-02-10T23:34:13.053Z,70.15
2019-02-10T23:36:45.304Z,70.35
2019-02-10T23:39:17.708Z,71.00
2019-02-10T23:41:49.361Z,71.37
2019-02-10T23:44:23.162Z,71.68
2019-02-10T23:47:02.221Z,71.75
2019-02-10T23:49:37.614Z,72.14
2019-02-10T23:52:08.923Z,71.99
2019-02-10T23:54:42.926Z,71.81
2019-02-10T23:57:13.675Z,71.92
2019-02-10T23:59:44.306Z,71.86
